KPZQ

Details ICAO KPZQ
Name PRESQUE ISLE CO
Region United States
Timezone America/Detroit (UTC-5.0)
Plans Departing 0
Arriving 1
Stats Elevation 670 ft / 204 m (AMSL)
Location 45.407095° -83.812866°
Runways 1
Magnetic Variation 7.674° W
Sunrise 2017-12-15 13:09:44 UTC / 2017-12-15 08:09:44 Local
Sunset 2017-12-15 21:54:05 UTC / 2017-12-15 16:54:05 Local
Advertisement - Login to hide

Runways

ID Width Length Bearing (true) Bearing (mag) Surface Threshold Offset Overrun Length
09 75 ft / 23 m 4,095 ft / 1,248 m 88.22° 95.89° Asphalt 220 ft / 67 m 0 ft / 0 m
27 75 ft / 23 m 4,095 ft / 1,248 m 268.23° 275.90° Asphalt 380 ft / 116 m 0 ft / 0 m

Map

Weather


0- 5 10 15 20 25 30 35+ Temperature / ° C

Clouds and Precipitation
Forecast for 2017-12-15 18:00 UTC. Updated an hour ago

Ground ~20,000 ft ~40,000 ft Winds

METAR

KPZQ 151815Z AUTO 28006KT 10SM SCT017 BKN050 OVC065 M04/M08 A2965 RMK AO2 T10441079

TAF

Not found

Frequencies

Unicom 122.90 MHz CTAF
Approach 128.42 MHz ALPENA APP/DEP
Warning: Do not use this data for real-world aviation or navigation. No guarantee of current accuracy is given.